Cumby, Texas
Current Conditions -  °F | °C
As of 7:35 PM on Monday 24 Nov 2014 (Local Time) from KSLR Reporting Station
Clear Clear  
Wind Chill:   Ceiling: Unl
Heat Index:   Visibility: 10mi
Dew Point: -2°   Wind: 3mph
Humidity: 46%   Direction: 240°WSW
Pressure: 30.12"   Gusts: NA
Location:  33.14°N, 95.84°W
Report Text: KSLR 250135Z AUTO 24003KT 10SM CLR 09/M02 A3012 RMK AO2 T00871023
Loading
Personal Weather Stations






























Interactive Weather Map New forecast layout! Learn more

10-Day Weather Forecast

Advertisements
Track Severe Weather on mobile